sensor_id;sensor_type;location;lat;lon;timestamp;pressure;altitude;pressure_sealevel;temperature;humidity
55685;BME280;41883;49.544;8.646;2023-02-21T00:02:41;101036.19;;;4.62;nan
55685;BME280;41883;49.544;8.646;2023-02-21T00:05:24;101046.53;;;4.64;nan
55685;BME280;41883;49.544;8.646;2023-02-21T00:08:08;101035.53;;;4.59;nan
55685;BME280;41883;49.544;8.646;2023-02-21T00:10:52;101029.03;;;4.52;nan
55685;BME280;41883;49.544;8.646;2023-02-21T00:13:37;101031.09;;;4.46;nan
55685;BME280;41883;49.544;8.646;2023-02-21T00:16:21;101028.13;;;4.38;nan
55685;BME280;41883;49.544;8.646;2023-02-21T00:19:05;101029.28;;;4.34;nan
55685;BME280;41883;49.544;8.646;2023-02-21T00:21:48;101022.34;;;4.33;nan
55685;BME280;41883;49.544;8.646;2023-02-21T00:24:32;101020.91;;;4.29;nan
55685;BME280;41883;49.544;8.646;2023-02-21T00:27:16;101019.69;;;4.20;nan
55685;BME280;41883;49.544;8.646;2023-02-21T00:30:00;101021.84;;;4.14;nan
55685;BME280;41883;49.544;8.646;2023-02-21T00:32:43;101015.88;;;4.12;nan
55685;BME280;41883;49.544;8.646;2023-02-21T00:35:27;101013.19;;;4.13;nan
55685;BME280;41883;49.544;8.646;2023-02-21T00:38:11;101014.97;;;4.13;nan
55685;BME280;41883;49.544;8.646;2023-02-21T00:40:55;101016.09;;;4.09;nan
55685;BME280;41883;49.544;8.646;2023-02-21T00:43:39;101014.59;;;4.04;nan
55685;BME280;41883;49.544;8.646;2023-02-21T00:46:23;101020.13;;;4.00;nan
55685;BME280;41883;49.544;8.646;2023-02-21T00:49:07;101016.03;;;3.96;nan
55685;BME280;41883;49.544;8.646;2023-02-21T00:51:51;101012.00;;;3.90;nan
55685;BME280;41883;49.544;8.646;2023-02-21T00:54:35;101013.25;;;3.85;nan
55685;BME280;41883;49.544;8.646;2023-02-21T00:57:19;101004.00;;;3.79;nan
55685;BME280;41883;49.544;8.646;2023-02-21T01:00:06;101005.97;;;3.75;nan
55685;BME280;41883;49.544;8.646;2023-02-21T01:02:50;101008.59;;;3.75;nan
55685;BME280;41883;49.544;8.646;2023-02-21T01:05:34;101006.19;;;3.72;nan
55685;BME280;41883;49.544;8.646;2023-02-21T01:08:17;101016.09;;;3.67;nan
55685;BME280;41883;49.544;8.646;2023-02-21T01:11:01;101014.59;;;3.63;nan
55685;BME280;41883;49.544;8.646;2023-02-21T01:13:45;101014.94;;;3.57;nan
55685;BME280;41883;49.544;8.646;2023-02-21T01:16:31;101008.25;;;3.53;nan
55685;BME280;41883;49.544;8.646;2023-02-21T01:19:15;101016.19;;;3.51;nan
55685;BME280;41883;49.544;8.646;2023-02-21T01:21:59;101021.34;;;3.53;nan
55685;BME280;41883;49.544;8.646;2023-02-21T01:24:43;101019.34;;;3.56;nan
55685;BME280;41883;49.544;8.646;2023-02-21T01:27:27;101024.38;;;3.59;nan
55685;BME280;41883;49.544;8.646;2023-02-21T01:30:10;101021.69;;;3.61;nan
55685;BME280;41883;49.544;8.646;2023-02-21T01:32:54;101018.31;;;3.59;nan
55685;BME280;41883;49.544;8.646;2023-02-21T01:35:38;101020.19;;;3.57;nan
55685;BME280;41883;49.544;8.646;2023-02-21T01:38:21;101024.50;;;3.58;nan
55685;BME280;41883;49.544;8.646;2023-02-21T01:41:08;101023.84;;;3.54;nan
55685;BME280;41883;49.544;8.646;2023-02-21T01:44:03;101007.50;;;3.51;nan
55685;BME280;41883;49.544;8.646;2023-02-21T01:46:47;101005.94;;;3.48;nan
55685;BME280;41883;49.544;8.646;2023-02-21T01:49:32;101002.56;;;3.46;nan
55685;BME280;41883;49.544;8.646;2023-02-21T01:52:17;101008.91;;;3.42;nan
55685;BME280;41883;49.544;8.646;2023-02-21T01:55:01;100999.41;;;3.41;nan
55685;BME280;41883;49.544;8.646;2023-02-21T01:57:46;101000.09;;;3.43;nan
55685;BME280;41883;49.544;8.646;2023-02-21T02:00:29;100995.75;;;3.44;nan
55685;BME280;41883;49.544;8.646;2023-02-21T02:03:15;100992.47;;;3.40;nan
55685;BME280;41883;49.544;8.646;2023-02-21T02:06:00;100987.44;;;3.37;nan
55685;BME280;41883;49.544;8.646;2023-02-21T02:08:45;100984.16;;;3.33;nan
55685;BME280;41883;49.544;8.646;2023-02-21T02:20:09;100978.47;;;3.27;nan
55685;BME280;41883;49.544;8.646;2023-02-21T02:25:37;100988.28;;;3.23;nan
55685;BME280;41883;49.544;8.646;2023-02-21T02:33:24;100980.72;;;3.18;nan
55685;BME280;41883;49.544;8.646;2023-02-21T02:35:55;100986.88;;;3.17;nan
55685;BME280;41883;49.544;8.646;2023-02-21T02:38:25;100975.47;;;3.18;nan
55685;BME280;41883;49.544;8.646;2023-02-21T02:43:21;100977.53;;;3.13;nan
55685;BME280;41883;49.544;8.646;2023-02-21T02:45:56;100975.88;;;3.12;nan
55685;BME280;41883;49.544;8.646;2023-02-21T02:48:27;100967.28;;;3.10;nan
55685;BME280;41883;49.544;8.646;2023-02-21T02:50:55;100981.38;;;3.08;nan
55685;BME280;41883;49.544;8.646;2023-02-21T02:53:24;100973.69;;;3.05;nan
55685;BME280;41883;49.544;8.646;2023-02-21T02:55:52;100977.19;;;3.05;nan
55685;BME280;41883;49.544;8.646;2023-02-21T02:58:19;100974.66;;;3.04;nan
55685;BME280;41883;49.544;8.646;2023-02-21T03:00:48;100966.06;;;3.02;nan
55685;BME280;41883;49.544;8.646;2023-02-21T03:03:28;100981.09;;;2.98;nan
55685;BME280;41883;49.544;8.646;2023-02-21T03:06:12;100976.03;;;2.95;nan
55685;BME280;41883;49.544;8.646;2023-02-21T03:08:46;100977.16;;;2.91;nan
55685;BME280;41883;49.544;8.646;2023-02-21T03:11:22;100980.88;;;2.87;nan
55685;BME280;41883;49.544;8.646;2023-02-21T03:13:56;100986.94;;;2.87;nan
55685;BME280;41883;49.544;8.646;2023-02-21T03:16:28;100979.84;;;2.89;nan
55685;BME280;41883;49.544;8.646;2023-02-21T03:18:56;100982.47;;;2.89;nan
55685;BME280;41883;49.544;8.646;2023-02-21T03:21:26;100987.88;;;2.86;nan
55685;BME280;41883;49.544;8.646;2023-02-21T03:23:53;100986.28;;;2.84;nan
55685;BME280;41883;49.544;8.646;2023-02-21T03:26:21;100989.81;;;2.83;nan
55685;BME280;41883;49.544;8.646;2023-02-21T03:28:46;100986.44;;;2.81;nan
55685;BME280;41883;49.544;8.646;2023-02-21T03:31:13;100979.56;;;2.80;nan
55685;BME280;41883;49.544;8.646;2023-02-21T03:33:40;100983.19;;;2.77;nan
55685;BME280;41883;49.544;8.646;2023-02-21T03:36:05;100984.97;;;2.76;nan
55685;BME280;41883;49.544;8.646;2023-02-21T03:38:32;100981.41;;;2.78;nan
55685;BME280;41883;49.544;8.646;2023-02-21T03:40:57;100987.59;;;2.76;nan
55685;BME280;41883;49.544;8.646;2023-02-21T03:43:22;100978.06;;;2.75;nan
55685;BME280;41883;49.544;8.646;2023-02-21T03:45:47;100985.13;;;2.73;nan
55685;BME280;41883;49.544;8.646;2023-02-21T03:48:13;100978.25;;;2.72;nan
55685;BME280;41883;49.544;8.646;2023-02-21T03:50:38;100980.03;;;2.72;nan
55685;BME280;41883;49.544;8.646;2023-02-21T03:53:06;100981.94;;;2.68;nan
55685;BME280;41883;49.544;8.646;2023-02-21T03:55:31;100982.97;;;2.66;nan
55685;BME280;41883;49.544;8.646;2023-02-21T03:57:56;100973.47;;;2.65;nan
55685;BME280;41883;49.544;8.646;2023-02-21T04:00:21;100973.38;;;2.66;nan
55685;BME280;41883;49.544;8.646;2023-02-21T04:02:47;100973.38;;;2.66;nan
55685;BME280;41883;49.544;8.646;2023-02-21T04:05:12;100987.38;;;2.65;nan
55685;BME280;41883;49.544;8.646;2023-02-21T04:07:37;100972.78;;;2.61;nan
55685;BME280;41883;49.544;8.646;2023-02-21T04:10:02;100977.25;;;2.59;nan
55685;BME280;41883;49.544;8.646;2023-02-21T04:12:27;100972.03;;;2.59;nan
55685;BME280;41883;49.544;8.646;2023-02-21T04:14:53;100973.00;;;2.58;nan
55685;BME280;41883;49.544;8.646;2023-02-21T04:17:20;100970.53;;;2.55;nan
55685;BME280;41883;49.544;8.646;2023-02-21T04:19:45;100968.88;;;2.54;nan
55685;BME280;41883;49.544;8.646;2023-02-21T04:22:10;100974.91;;;2.54;nan
55685;BME280;41883;49.544;8.646;2023-02-21T04:24:36;100982.75;;;2.54;nan
55685;BME280;41883;49.544;8.646;2023-02-21T04:27:01;100977.63;;;2.53;nan
55685;BME280;41883;49.544;8.646;2023-02-21T04:29:26;100975.19;;;2.50;nan
55685;BME280;41883;49.544;8.646;2023-02-21T04:31:51;100976.13;;;2.49;nan
55685;BME280;41883;49.544;8.646;2023-02-21T04:34:17;100973.50;;;2.49;nan
55685;BME280;41883;49.544;8.646;2023-02-21T04:36:42;100964.84;;;2.48;nan
55685;BME280;41883;49.544;8.646;2023-02-21T04:39:07;100963.25;;;2.46;nan
55685;BME280;41883;49.544;8.646;2023-02-21T04:41:33;100961.47;;;2.46;nan
55685;BME280;41883;49.544;8.646;2023-02-21T04:43:58;100962.31;;;2.47;nan
55685;BME280;41883;49.544;8.646;2023-02-21T04:46:24;100966.59;;;2.48;nan
55685;BME280;41883;49.544;8.646;2023-02-21T04:48:49;100960.53;;;2.47;nan
55685;BME280;41883;49.544;8.646;2023-02-21T04:51:16;100962.31;;;2.47;nan
55685;BME280;41883;49.544;8.646;2023-02-21T04:53:41;100963.97;;;2.48;nan
55685;BME280;41883;49.544;8.646;2023-02-21T04:56:07;100963.16;;;2.47;nan
55685;BME280;41883;49.544;8.646;2023-02-21T04:58:32;100955.44;;;2.46;nan
55685;BME280;41883;49.544;8.646;2023-02-21T05:00:57;100959.78;;;2.45;nan
55685;BME280;41883;49.544;8.646;2023-02-21T05:03:23;100964.19;;;2.45;nan
55685;BME280;41883;49.544;8.646;2023-02-21T05:05:48;100961.75;;;2.42;nan
55685;BME280;41883;49.544;8.646;2023-02-21T05:08:13;100956.53;;;2.42;nan
55685;BME280;41883;49.544;8.646;2023-02-21T05:10:39;100949.72;;;2.39;nan
55685;BME280;41883;49.544;8.646;2023-02-21T05:13:04;100956.78;;;2.37;nan
55685;BME280;41883;49.544;8.646;2023-02-21T05:15:29;100955.19;;;2.34;nan
55685;BME280;41883;49.544;8.646;2023-02-21T05:17:54;100955.38;;;2.31;nan
55685;BME280;41883;49.544;8.646;2023-02-21T05:20:20;100958.34;;;2.25;nan
55685;BME280;41883;49.544;8.646;2023-02-21T05:22:45;100968.13;;;2.22;nan
55685;BME280;41883;49.544;8.646;2023-02-21T05:25:16;100955.16;;;2.20;nan
55685;BME280;41883;49.544;8.646;2023-02-21T05:27:42;100965.50;;;2.22;nan
55685;BME280;41883;49.544;8.646;2023-02-21T05:30:07;100968.13;;;2.22;nan
55685;BME280;41883;49.544;8.646;2023-02-21T05:32:32;100968.19;;;2.20;nan
55685;BME280;41883;49.544;8.646;2023-02-21T05:34:57;100963.06;;;2.19;nan
55685;BME280;41883;49.544;8.646;2023-02-21T05:37:23;100969.09;;;2.19;nan
55685;BME280;41883;49.544;8.646;2023-02-21T05:39:48;100971.00;;;2.17;nan
55685;BME280;41883;49.544;8.646;2023-02-21T05:42:13;100975.59;;;2.12;nan
55685;BME280;41883;49.544;8.646;2023-02-21T05:44:38;100977.56;;;2.08;nan
55685;BME280;41883;49.544;8.646;2023-02-21T05:47:04;100978.31;;;2.10;nan
55685;BME280;41883;49.544;8.646;2023-02-21T05:49:31;100978.22;;;2.12;nan
55685;BME280;41883;49.544;8.646;2023-02-21T05:51:56;100981.75;;;2.11;nan
55685;BME280;41883;49.544;8.646;2023-02-21T05:54:21;100973.16;;;2.09;nan
55685;BME280;41883;49.544;8.646;2023-02-21T05:56:47;100970.56;;;2.09;nan
55685;BME280;41883;49.544;8.646;2023-02-21T05:59:13;100974.88;;;2.10;nan
55685;BME280;41883;49.544;8.646;2023-02-21T06:01:38;100977.47;;;2.10;nan
55685;BME280;41883;49.544;8.646;2023-02-21T06:04:04;100979.34;;;2.08;nan
55685;BME280;41883;49.544;8.646;2023-02-21T06:06:31;100974.13;;;2.08;nan
55685;BME280;41883;49.544;8.646;2023-02-21T06:08:56;100977.47;;;2.10;nan
55685;BME280;41883;49.544;8.646;2023-02-21T06:11:29;100973.94;;;2.11;nan
55685;BME280;41883;49.544;8.646;2023-02-21T06:13:57;100969.66;;;2.10;nan
55685;BME280;41883;49.544;8.646;2023-02-21T06:16:23;100972.25;;;2.10;nan
55685;BME280;41883;49.544;8.646;2023-02-21T06:18:49;100967.78;;;2.12;nan
55685;BME280;41883;49.544;8.646;2023-02-21T06:21:17;100973.94;;;2.11;nan
55685;BME280;41883;49.544;8.646;2023-02-21T06:23:43;100974.88;;;2.10;nan
55685;BME280;41883;49.544;8.646;2023-02-21T06:26:08;100976.63;;;2.09;nan
55685;BME280;41883;49.544;8.646;2023-02-21T06:28:34;100972.34;;;2.08;nan
55685;BME280;41883;49.544;8.646;2023-02-21T06:30:59;100966.28;;;2.08;nan
55685;BME280;41883;49.544;8.646;2023-02-21T06:33:25;100976.53;;;2.11;nan
55685;BME280;41883;49.544;8.646;2023-02-21T06:35:50;100970.38;;;2.12;nan
55685;BME280;41883;49.544;8.646;2023-02-21T06:38:15;100971.31;;;2.11;nan
55685;BME280;41883;49.544;8.646;2023-02-21T06:40:40;100973.84;;;2.12;nan
55685;BME280;41883;49.544;8.646;2023-02-21T06:43:09;100968.63;;;2.12;nan
55685;BME280;41883;49.544;8.646;2023-02-21T06:45:34;100973.00;;;2.12;nan
55685;BME280;41883;49.544;8.646;2023-02-21T06:47:59;100971.31;;;2.11;nan
55685;BME280;41883;49.544;8.646;2023-02-21T06:50:24;100975.78;;;2.09;nan
55685;BME280;41883;49.544;8.646;2023-02-21T06:52:50;100972.25;;;2.10;nan
55685;BME280;41883;49.544;8.646;2023-02-21T06:55:19;100969.66;;;2.10;nan
55685;BME280;41883;49.544;8.646;2023-02-21T06:57:44;100973.84;;;2.12;nan
55685;BME280;41883;49.544;8.646;2023-02-21T07:00:10;100977.03;;;2.18;nan
55685;BME280;41883;49.544;8.646;2023-02-21T07:02:35;100978.44;;;2.23;nan
55685;BME280;41883;49.544;8.646;2023-02-21T07:05:02;100978.94;;;2.30;nan
55685;BME280;41883;49.544;8.646;2023-02-21T07:07:28;100976.84;;;2.37;nan
55685;BME280;41883;49.544;8.646;2023-02-21T07:09:53;100971.16;;;2.44;nan
55685;BME280;41883;49.544;8.646;2023-02-21T07:12:18;100970.72;;;2.52;nan
55685;BME280;41883;49.544;8.646;2023-02-21T07:14:43;100975.50;;;2.60;nan
55685;BME280;41883;49.544;8.646;2023-02-21T07:17:08;100966.28;;;2.68;nan
55685;BME280;41883;49.544;8.646;2023-02-21T07:19:33;100975.25;;;2.79;nan
55685;BME280;41883;49.544;8.646;2023-02-21T07:21:59;100974.72;;;2.88;nan
55685;BME280;41883;49.544;8.646;2023-02-21T07:24:24;100973.31;;;2.96;nan
55685;BME280;41883;49.544;8.646;2023-02-21T07:26:49;100968.31;;;3.08;nan
55685;BME280;41883;49.544;8.646;2023-02-21T07:29:14;100970.16;;;3.20;nan
55685;BME280;41883;49.544;8.646;2023-02-21T07:31:41;100977.25;;;3.32;nan
55685;BME280;41883;49.544;8.646;2023-02-21T07:34:06;100972.97;;;3.46;nan
55685;BME280;41883;49.544;8.646;2023-02-21T07:36:31;100973.88;;;3.59;nan
55685;BME280;41883;49.544;8.646;2023-02-21T07:38:56;100969.66;;;3.71;nan
55685;BME280;41883;49.544;8.646;2023-02-21T07:41:22;100968.66;;;3.86;nan
55685;BME280;41883;49.544;8.646;2023-02-21T07:43:47;100980.03;;;3.99;nan
55685;BME280;41883;49.544;8.646;2023-02-21T07:46:12;100977.47;;;4.12;nan
55685;BME280;41883;49.544;8.646;2023-02-21T07:48:38;100982.75;;;4.25;nan
55685;BME280;41883;49.544;8.646;2023-02-21T07:51:05;100979.25;;;4.39;nan
55685;BME280;41883;49.544;8.646;2023-02-21T07:53:30;100978.22;;;4.54;nan
55685;BME280;41883;49.544;8.646;2023-02-21T07:55:55;100979.19;;;4.66;nan
55685;BME280;41883;49.544;8.646;2023-02-21T07:58:20;100970.28;;;4.81;nan
55685;BME280;41883;49.544;8.646;2023-02-21T08:00:45;100974.50;;;4.97;nan
55685;BME280;41883;49.544;8.646;2023-02-21T08:03:11;100980.56;;;5.10;nan
55685;BME280;41883;49.544;8.646;2023-02-21T08:05:37;100971.75;;;5.24;nan
55685;BME280;41883;49.544;8.646;2023-02-21T08:08:02;100977.00;;;5.37;nan
55685;BME280;41883;49.544;8.646;2023-02-21T08:10:30;100968.13;;;5.50;nan
55685;BME280;41883;49.544;8.646;2023-02-21T08:12:55;100981.03;;;5.66;nan
55685;BME280;41883;49.544;8.646;2023-02-21T08:15:21;100977.91;;;5.85;nan
55685;BME280;41883;49.544;8.646;2023-02-21T08:17:47;100977.69;;;6.01;nan
55685;BME280;41883;49.544;8.646;2023-02-21T08:20:13;100978.47;;;6.14;nan
55685;BME280;41883;49.544;8.646;2023-02-21T08:22:38;100980.09;;;6.28;nan
55685;BME280;41883;49.544;8.646;2023-02-21T08:25:03;100973.91;;;6.41;nan
55685;BME280;41883;49.544;8.646;2023-02-21T08:27:29;100978.97;;;6.55;nan
55685;BME280;41883;49.544;8.646;2023-02-21T08:29:54;100973.53;;;6.69;nan
55685;BME280;41883;49.544;8.646;2023-02-21T08:32:19;100978.00;;;6.80;nan
55685;BME280;41883;49.544;8.646;2023-02-21T08:34:45;100980.28;;;6.96;nan
55685;BME280;41883;49.544;8.646;2023-02-21T08:37:11;100969.91;;;7.06;nan
55685;BME280;41883;49.544;8.646;2023-02-21T08:39:51;100975.88;;;7.19;nan
55685;BME280;41883;49.544;8.646;2023-02-21T08:42:20;100969.66;;;7.31;nan
55685;BME280;41883;49.544;8.646;2023-02-21T08:44:45;100973.97;;;7.43;nan
55685;BME280;41883;49.544;8.646;2023-02-21T08:47:11;100980.78;;;7.57;nan
55685;BME280;41883;49.544;8.646;2023-02-21T08:49:37;100974.31;;;7.73;nan
55685;BME280;41883;49.544;8.646;2023-02-21T08:52:04;100977.25;;;7.91;nan
55685;BME280;41883;49.544;8.646;2023-02-21T08:54:29;100967.41;;;8.04;nan
55685;BME280;41883;49.544;8.646;2023-02-21T08:56:55;100972.97;;;8.22;nan
55685;BME280;41883;49.544;8.646;2023-02-21T08:59:20;100973.75;;;8.34;nan
55685;BME280;41883;49.544;8.646;2023-02-21T09:01:48;100966.56;;;8.47;nan
55685;BME280;41883;49.544;8.646;2023-02-21T09:04:13;100957.63;;;8.59;nan
55685;BME280;41883;49.544;8.646;2023-02-21T09:06:38;100966.56;;;8.68;nan
55685;BME280;41883;49.544;8.646;2023-02-21T09:09:03;100964.94;;;8.77;nan
55685;BME280;41883;49.544;8.646;2023-02-21T09:11:29;100961.09;;;8.81;nan
55685;BME280;41883;49.544;8.646;2023-02-21T09:13:54;100965.31;;;8.93;nan
55685;BME280;41883;49.544;8.646;2023-02-21T09:16:19;100958.28;;;9.03;nan
55685;BME280;41883;49.544;8.646;2023-02-21T09:18:51;100965.56;;;9.11;nan
55685;BME280;41883;49.544;8.646;2023-02-21T09:21:16;100950.06;;;9.18;nan
55685;BME280;41883;49.544;8.646;2023-02-21T09:23:41;100948.41;;;9.26;nan
55685;BME280;41883;49.544;8.646;2023-02-21T09:26:07;100951.91;;;9.36;nan
55685;BME280;41883;49.544;8.646;2023-02-21T09:28:32;100960.84;;;9.45;nan
55685;BME280;41883;49.544;8.646;2023-02-21T09:30:57;100945.03;;;9.55;nan
55685;BME280;41883;49.544;8.646;2023-02-21T09:33:22;100948.38;;;9.67;nan
55685;BME280;41883;49.544;8.646;2023-02-21T09:35:47;100955.63;;;9.74;nan
55685;BME280;41883;49.544;8.646;2023-02-21T09:38:14;100946.19;;;9.82;nan
55685;BME280;41883;49.544;8.646;2023-02-21T09:40:43;100944.94;;;9.86;nan
55685;BME280;41883;49.544;8.646;2023-02-21T09:43:10;100938.97;;;9.93;nan
55685;BME280;41883;49.544;8.646;2023-02-21T09:45:39;100943.44;;;10.03;nan
55685;BME280;41883;49.544;8.646;2023-02-21T09:48:05;100932.16;;;10.10;nan
55685;BME280;41883;49.544;8.646;2023-02-21T09:50:32;100936.78;;;10.18;nan
55685;BME280;41883;49.544;8.646;2023-02-21T09:52:58;100932.63;;;10.25;nan
55685;BME280;41883;49.544;8.646;2023-02-21T09:55:29;100930.13;;;10.33;nan
55685;BME280;41883;49.544;8.646;2023-02-21T09:57:55;100932.06;;;10.31;nan
55685;BME280;41883;49.544;8.646;2023-02-21T10:00:22;100923.44;;;10.39;nan
55685;BME280;41883;49.544;8.646;2023-02-21T10:03:04;100927.34;;;10.45;nan
55685;BME280;41883;49.544;8.646;2023-02-21T10:08:12;100928.44;;;10.61;nan
55685;BME280;41883;49.544;8.646;2023-02-21T10:13:34;100922.00;;;10.74;nan
55685;BME280;41883;49.544;8.646;2023-02-21T10:16:04;100931.59;;;10.84;nan
55685;BME280;41883;49.544;8.646;2023-02-21T10:18:47;100921.97;;;10.83;nan
55685;BME280;41883;49.544;8.646;2023-02-21T10:21:20;100919.44;;;10.92;nan
55685;BME280;41883;49.544;8.646;2023-02-21T10:23:49;100923.84;;;11.01;nan
55685;BME280;41883;49.544;8.646;2023-02-21T10:26:16;100927.16;;;11.13;nan
55685;BME280;41883;49.544;8.646;2023-02-21T10:28:42;100925.88;;;11.17;nan
55685;BME280;41883;49.544;8.646;2023-02-21T10:31:10;100916.75;;;11.29;nan
55685;BME280;41883;49.544;8.646;2023-02-21T10:33:36;100918.41;;;11.40;nan
55685;BME280;41883;49.544;8.646;2023-02-21T10:36:08;100916.13;;;11.45;nan
55685;BME280;41883;49.544;8.646;2023-02-21T10:38:33;100918.81;;;11.63;nan
55685;BME280;41883;49.544;8.646;2023-02-21T10:41:00;100912.97;;;12.23;nan
55685;BME280;41883;49.544;8.646;2023-02-21T10:43:30;100914.03;;;12.82;nan
55685;BME280;41883;49.544;8.646;2023-02-21T10:48:23;100913.97;;;15.70;nan
55685;BME280;41883;49.544;8.646;2023-02-21T10:50:50;100915.06;;;17.43;nan
55685;BME280;41883;49.544;8.646;2023-02-21T10:53:32;100916.03;;;18.92;nan
55685;BME280;41883;49.544;8.646;2023-02-21T10:58:38;100913.16;;;20.90;nan
55685;BME280;41883;49.544;8.646;2023-02-21T11:01:11;100909.38;;;21.62;nan
55685;BME280;41883;49.544;8.646;2023-02-21T11:03:36;100905.78;;;22.07;nan
55685;BME280;41883;49.544;8.646;2023-02-21T11:06:06;100905.75;;;22.64;nan
55685;BME280;41883;49.544;8.646;2023-02-21T11:11:00;100897.00;;;23.42;nan
55685;BME280;41883;49.544;8.646;2023-02-21T11:13:26;100895.59;;;24.12;nan
55685;BME280;41883;49.544;8.646;2023-02-21T11:16:06;100890.34;;;24.64;nan
55685;BME280;41883;49.544;8.646;2023-02-21T11:18:31;100884.09;;;24.99;nan
55685;BME280;41883;49.544;8.646;2023-02-21T11:20:57;100879.59;;;25.45;nan
55685;BME280;41883;49.544;8.646;2023-02-21T11:23:34;100873.59;;;25.43;nan
55685;BME280;41883;49.544;8.646;2023-02-21T11:26:04;100882.31;;;25.45;nan
55685;BME280;41883;49.544;8.646;2023-02-21T11:28:33;100870.13;;;25.59;nan
55685;BME280;41883;49.544;8.646;2023-02-21T11:33:26;100859.44;;;25.53;nan
55685;BME280;41883;49.544;8.646;2023-02-21T11:35:52;100856.72;;;25.24;nan
55685;BME280;41883;49.544;8.646;2023-02-21T11:38:38;100854.16;;;24.65;nan
55685;BME280;41883;49.544;8.646;2023-02-21T11:41:14;100847.81;;;24.12;nan
55685;BME280;41883;49.544;8.646;2023-02-21T11:43:44;100834.88;;;23.61;nan
55685;BME280;41883;49.544;8.646;2023-02-21T11:46:54;100832.97;;;22.64;nan
55685;BME280;41883;49.544;8.646;2023-02-21T11:49:04;100837.09;;;21.98;nan
55685;BME280;41883;49.544;8.646;2023-02-21T11:51:32;100822.38;;;21.30;nan
55685;BME280;41883;49.544;8.646;2023-02-21T11:53:59;100827.13;;;20.83;nan
55685;BME280;41883;49.544;8.646;2023-02-21T11:58:53;100816.53;;;19.97;nan
55685;BME280;41883;49.544;8.646;2023-02-21T12:01:26;100815.56;;;19.29;nan
55685;BME280;41883;49.544;8.646;2023-02-21T12:09:18;100808.06;;;18.29;nan
55685;BME280;41883;49.544;8.646;2023-02-21T12:11:51;100797.75;;;17.97;nan
55685;BME280;41883;49.544;8.646;2023-02-21T12:19:24;100791.06;;;17.07;nan
55685;BME280;41883;49.544;8.646;2023-02-21T12:22:54;100780.78;;;16.89;nan
55685;BME280;41883;49.544;8.646;2023-02-21T12:27:14;100770.59;;;16.33;nan
55685;BME280;41883;49.544;8.646;2023-02-21T12:39:54;100747.50;;;15.73;nan
55685;BME280;41883;49.544;8.646;2023-02-21T12:47:50;100740.06;;;15.60;nan
55685;BME280;41883;49.544;8.646;2023-02-21T12:50:19;100730.31;;;15.53;nan
55685;BME280;41883;49.544;8.646;2023-02-21T12:55:28;100730.69;;;15.26;nan
55685;BME280;41883;49.544;8.646;2023-02-21T13:00:52;100720.47;;;15.30;nan
55685;BME280;41883;49.544;8.646;2023-02-21T13:03:24;100713.22;;;15.24;nan
55685;BME280;41883;49.544;8.646;2023-02-21T13:08:45;100711.06;;;15.19;nan
55685;BME280;41883;49.544;8.646;2023-02-21T13:13:42;100704.56;;;15.22;nan
55685;BME280;41883;49.544;8.646;2023-02-21T13:16:08;100700.94;;;15.15;nan
55685;BME280;41883;49.544;8.646;2023-02-21T13:18:38;100699.59;;;15.19;nan
55685;BME280;41883;49.544;8.646;2023-02-21T13:21:18;100704.19;;;15.25;nan
55685;BME280;41883;49.544;8.646;2023-02-21T13:29:19;100681.50;;;15.14;nan
55685;BME280;41883;49.544;8.646;2023-02-21T13:31:46;100681.59;;;15.21;nan
55685;BME280;41883;49.544;8.646;2023-02-21T13:34:12;100683.94;;;15.16;nan
55685;BME280;41883;49.544;8.646;2023-02-21T13:36:43;100678.47;;;15.17;nan
55685;BME280;41883;49.544;8.646;2023-02-21T13:39:29;100671.28;;;15.18;nan
55685;BME280;41883;49.544;8.646;2023-02-21T13:42:07;100667.50;;;15.12;nan
55685;BME280;41883;49.544;8.646;2023-02-21T13:44:34;100662.03;;;15.14;nan
55685;BME280;41883;49.544;8.646;2023-02-21T13:47:07;100657.88;;;15.11;nan
55685;BME280;41883;49.544;8.646;2023-02-21T13:57:35;100643.94;;;15.24;nan
55685;BME280;41883;49.544;8.646;2023-02-21T14:00:44;100638.78;;;15.22;nan
55685;BME280;41883;49.544;8.646;2023-02-21T14:02:59;100631.28;;;15.26;nan
55685;BME280;41883;49.544;8.646;2023-02-21T14:05:25;100636.06;;;15.31;nan
55685;BME280;41883;49.544;8.646;2023-02-21T14:07:58;100626.88;;;15.33;nan
55685;BME280;41883;49.544;8.646;2023-02-21T14:10:26;100627.72;;;15.34;nan
55685;BME280;41883;49.544;8.646;2023-02-21T14:12:53;100623.41;;;15.33;nan
55685;BME280;41883;49.544;8.646;2023-02-21T14:15:19;100621.56;;;15.33;nan
55685;BME280;41883;49.544;8.646;2023-02-21T14:17:45;100623.19;;;15.34;nan
55685;BME280;41883;49.544;8.646;2023-02-21T14:20:14;100620.38;;;15.36;nan
55685;BME280;41883;49.544;8.646;2023-02-21T14:22:40;100616.88;;;15.35;nan
55685;BME280;41883;49.544;8.646;2023-02-21T14:25:07;100617.06;;;15.34;nan
55685;BME280;41883;49.544;8.646;2023-02-21T14:27:38;100619.53;;;15.35;nan
55685;BME280;41883;49.544;8.646;2023-02-21T14:30:24;100617.41;;;15.31;nan
55685;BME280;41883;49.544;8.646;2023-02-21T14:32:50;100614.28;;;15.27;nan
55685;BME280;41883;49.544;8.646;2023-02-21T14:51:07;100600.84;;;15.20;nan
55685;BME280;41883;49.544;8.646;2023-02-21T15:06:54;100588.63;;;15.11;nan
55685;BME280;41883;49.544;8.646;2023-02-21T15:09:23;100583.19;;;15.04;nan
55685;BME280;41883;49.544;8.646;2023-02-21T15:11:48;100580.25;;;14.99;nan
55685;BME280;41883;49.544;8.646;2023-02-21T15:16:47;100582.59;;;14.94;nan
55685;BME280;41883;49.544;8.646;2023-02-21T15:19:20;100579.47;;;14.91;nan
55685;BME280;41883;49.544;8.646;2023-02-21T15:21:46;100580.81;;;14.86;nan
55685;BME280;41883;49.544;8.646;2023-02-21T15:24:12;100578.34;;;14.85;nan
55685;BME280;41883;49.544;8.646;2023-02-21T15:26:38;100565.75;;;14.79;nan
55685;BME280;41883;49.544;8.646;2023-02-21T15:31:35;100563.78;;;14.73;nan
55685;BME280;41883;49.544;8.646;2023-02-21T15:34:02;100566.16;;;14.68;nan
55685;BME280;41883;49.544;8.646;2023-02-21T15:36:27;100559.19;;;14.67;nan
55685;BME280;41883;49.544;8.646;2023-02-21T15:41:31;100553.28;;;14.56;nan